Skip Navigation Links Skip Navigation Links

Current Weather

Stewart Int'L, Newburgh, N.Y.

For information only: do not use for flight planning or navigation.
Latest weather
Observation time Saturday, June 6, 2020 7:45 PM EDT
Local time Saturday, June 6, 2020 8:36 PM EDT
Flight conditions Visual Meteorological Conditions
Winds
Wind direction Northwest (310°)
Wind speed 14 mph
Wind gusting to 29 mph
Visibility 10 mi.
Sky condition
Ceiling unlimited
Cloud layer few clouds 6,000 ft.
Temperature 77°F
Dewpoint 46°F
Altimeter 29.78 in.Hg
Derived measurements
Relative humidity 34%
Heat index 77°F
Density altitude 1966 ft.
METAR KSWF 062345Z 310012G25KT 10SM FEW060 25/08 A2978

Settings

Location code

InnerDrive.Weather 4.0.6770.0 Release CLR 4.0.30319.42000
Copyright ©2018 Inner Drive Technology. All rights reserved. Portions Copyright ©1986-2018 David Braverman.

Find weather

Site navigation


Skip Navigation Links

Place info

Page info

PayPal - The safer, easier way to pay online!

Return home.

Copyright ©2020 Inner Drive Technology. Purveyors of fine, hand-crafted computer software. Page printed 2020-06-07T00:36:50 UTC.